Time;durP1;ratioP1;P1;durP2;ratioP2;P2;SDS_P1;SDS_P2;PMS_P1;PMS_P2;Temp;Humidity;BMP_temperature;BMP_pressure;BME280_temperature;BME280_humidity;BME280_pressure;Samples;Min_cycle;Max_cycle;Signal;HPM_P1;HPM_P2
2023/07/08 00:01:55;;;;;;;;;;;;;;;-147.27;100.00;65176.34;5078898;28;19917;-51
2023/07/08 00:04:21;;;;;;;;;;;;;;;-147.27;100.00;65176.34;5082574;28;19921;-57
2023/07/08 00:06:47;;;;;;;;;;;;;;;-147.27;100.00;65176.34;5084628;28;19917;-54
2023/07/08 00:09:13;;;;;;;;;;;;;;;-147.27;100.00;65176.34;5078274;28;19924;-58
2023/07/08 00:11:38;;;;;;;;;;;;;;;-147.27;100.00;65176.34;5078185;28;19917;-57
2023/07/08 00:14:04;;;;;;;;;;;;;;;-147.27;100.00;65176.34;5077681;28;19916;-58
2023/07/08 00:16:29;;;;;;;;;;;;;;;-147.27;100.00;65176.34;5065544;28;19920;-55
2023/07/08 00:18:55;;;;;;;;;;;;;;;-147.27;100.00;65176.34;5077538;28;20007;-54
2023/07/08 00:21:20;;;;;;;;;;;;;;;-147.27;100.00;65176.34;5077999;28;19992;-55
2023/07/08 00:23:46;;;;;;;;;;;;;;;-147.27;100.00;65176.34;5081627;28;19917;-58
2023/07/08 00:26:15;;;;;;;;;;;;;;;-147.27;100.00;65176.34;5077675;28;20012;-57
2023/07/08 00:28:41;;;;;;;;;;;;;;;-147.27;100.00;65176.34;5077681;28;19917;-58
2023/07/08 00:31:10;;;;;;;;;;;;;;;-147.27;100.00;65176.34;5093709;28;19959;-56
2023/07/08 00:33:36;;;;;;;;;;;;;;;-147.27;100.00;65176.34;5085131;28;19927;-56
2023/07/08 00:36:05;;;;;;;;;;;;;;;-147.27;100.00;65176.34;5059667;28;19917;-58
2023/07/08 00:38:30;;;;;;;;;;;;;;;-147.27;100.00;65176.34;5059700;28;19978;-57
2023/07/08 00:41:02;;;;;;;;;;;;;;;-147.27;100.00;65176.34;5076831;28;19917;-57
2023/07/08 00:43:46;;;;;;;;;;;;;;;-147.27;100.00;65176.34;5091991;28;19948;-54
2023/07/08 00:46:24;;;;;;;;;;;;;;;-147.27;100.00;65176.34;5102054;28;19917;-55
2023/07/08 00:48:51;;;;;;;;;;;;;;;-147.27;100.00;65176.34;5076825;28;19917;-57
2023/07/08 00:51:18;;;;;;;;;;;;;;;-147.27;100.00;65176.34;5077071;28;19916;-58
2023/07/08 00:53:44;;;;;;;;;;;;;;;-147.27;100.00;65176.34;5076519;28;19923;-54
2023/07/08 00:56:13;;;;;;;;;;;;;;;-147.27;100.00;65176.34;5058468;28;19916;-57
2023/07/08 00:58:44;;;;;;;;;;;;;;;-147.27;100.00;65176.34;5076416;28;19920;-56
2023/07/08 01:01:11;;;;;;;;;;;;;;;-147.27;100.00;65176.34;5059312;28;19920;-59
2023/07/08 01:03:42;;;;;;;;;;;;;;;-147.27;100.00;65176.34;5077155;28;19956;-58
2023/07/08 01:06:08;;;;;;;;;;;;;;;-147.27;100.00;65176.34;5059127;28;19942;-54
2023/07/08 01:08:34;;;;;;;;;;;;;;;-147.27;100.00;65176.34;5076376;28;19920;-58
2023/07/08 01:11:01;;;;;;;;;;;;;;;-147.27;100.00;65176.34;5059196;28;19931;-57
2023/07/08 01:13:30;;;;;;;;;;;;;;;-147.27;100.00;65176.34;5059578;28;19932;-55
2023/07/08 01:15:57;;;;;;;;;;;;;;;-147.27;100.00;65176.34;5077145;28;19917;-56
2023/07/08 01:18:24;;;;;;;;;;;;;;;-147.27;100.00;65176.34;5066484;28;19932;-51
2023/07/08 01:20:50;;;;;;;;;;;;;;;-147.27;100.00;65176.34;5077069;28;19940;-52
2023/07/08 01:23:17;;;;;;;;;;;;;;;-147.27;100.00;65176.34;5059137;28;19917;-53
2023/07/08 01:25:44;;;;;;;;;;;;;;;-147.27;100.00;65176.34;5059009;28;19917;-52
2023/07/08 01:28:10;;;;;;;;;;;;;;;-147.27;100.00;65176.34;5076608;28;19939;-56
2023/07/08 01:30:36;;;;;;;;;;;;;;;-147.27;100.00;65176.34;5092337;28;19917;-55
2023/07/08 01:33:04;;;;;;;;;;;;;;;-147.27;100.00;65176.34;5079353;28;19959;-56
2023/07/08 01:35:30;;;;;;;;;;;;;;;-147.27;100.00;65176.34;5060495;28;19916;-54
2023/07/08 01:38:03;;;;;;;;;;;;;;;-147.27;100.00;65176.34;5058678;28;19943;-57
2023/07/08 01:40:30;;;;;;;;;;;;;;;-147.27;100.00;65176.34;5076335;28;19927;-54
2023/07/08 01:42:56;;;;;;;;;;;;;;;-147.27;100.00;65176.34;5058893;28;19917;-53
2023/07/08 01:45:24;;;;;;;;;;;;;;;-147.27;100.00;65176.34;5076015;28;19924;-57
2023/07/08 01:47:53;;;;;;;;;;;;;;;-147.27;100.00;65176.34;5077468;28;19917;-54
2023/07/08 01:50:20;;;;;;;;;;;;;;;-147.27;100.00;65176.34;5072072;28;19917;-53
2023/07/08 01:52:46;;;;;;;;;;;;;;;-147.27;100.00;65176.34;5076204;28;19917;-56
2023/07/08 01:55:12;;;;;;;;;;;;;;;-147.27;100.00;65176.34;5088282;28;19916;-55
2023/07/08 01:57:38;;;;;;;;;;;;;;;-147.27;100.00;65176.34;5076127;28;19943;-57
2023/07/08 02:00:05;;;;;;;;;;;;;;;-147.27;100.00;65176.34;5091257;28;19924;-57
2023/07/08 02:02:38;;;;;;;;;;;;;;;-147.27;100.00;65176.34;5079142;28;19917;-58
2023/07/08 02:05:05;;;;;;;;;;;;;;;-147.27;100.00;65176.34;5075819;28;19917;-57
2023/07/08 02:07:31;;;;;;;;;;;;;;;-147.27;100.00;65176.34;5083273;28;19922;-57
2023/07/08 02:09:56;;;;;;;;;;;;;;;-147.27;100.00;65176.34;5075706;28;19920;-57
2023/07/08 02:12:22;;;;;;;;;;;;;;;-147.27;100.00;65176.34;5075615;28;19928;-57
2023/07/08 02:14:48;;;;;;;;;;;;;;;-147.27;100.00;65176.34;5080414;28;19917;-55
2023/07/08 02:17:16;;;;;;;;;;;;;;;-147.27;100.00;65176.34;5058196;28;19992;-56
2023/07/08 02:19:43;;;;;;;;;;;;;;;-147.27;100.00;65176.34;5058322;28;20403;-56
2023/07/08 02:22:08;;;;;;;;;;;;;;;-147.27;100.00;65176.34;5058194;28;19917;-58
2023/07/08 02:24:33;;;;;;;;;;;;;;;-147.27;100.00;65176.34;5074919;28;19995;-54
2023/07/08 02:26:59;;;;;;;;;;;;;;;-147.27;100.00;65176.34;5071570;28;19955;-56
2023/07/08 02:29:26;;;;;;;;;;;;;;;-147.27;100.00;65176.34;5075433;28;19916;-57
2023/07/08 02:31:51;;;;;;;;;;;;;;;-147.27;100.00;65176.34;5075466;28;19916;-56
2023/07/08 02:34:17;;;;;;;;;;;;;;;-147.27;100.00;65176.34;5075183;28;19984;-57
2023/07/08 02:36:44;;;;;;;;;;;;;;;-147.27;100.00;65176.34;5075474;28;19920;-58
2023/07/08 02:39:10;;;;;;;;;;;;;;;-147.27;100.00;65176.34;5075107;28;19920;-57
2023/07/08 02:41:36;;;;;;;;;;;;;;;-147.27;100.00;65176.34;5074511;28;19917;-58
2023/07/08 02:44:02;;;;;;;;;;;;;;;-147.27;100.00;65176.34;5057709;28;19917;-57
2023/07/08 02:46:27;;;;;;;;;;;;;;;-147.27;100.00;65176.34;5075274;28;19916;-57
2023/07/08 02:48:54;;;;;;;;;;;;;;;-147.27;100.00;65176.34;5083651;28;20023;-56
2023/07/08 02:51:20;;;;;;;;;;;;;;;-147.27;100.00;65176.34;5080237;28;19921;-58
2023/07/08 02:53:47;;;;;;;;;;;;;;;-147.27;100.00;65176.34;5078918;28;19920;-57
2023/07/08 02:56:13;;;;;;;;;;;;;;;-147.27;100.00;65176.34;5058254;28;19984;-56
2023/07/08 02:58:39;;;;;;;;;;;;;;;-147.27;100.00;65176.34;5069092;28;19928;-58
2023/07/08 03:01:06;;;;;;;;;;;;;;;-147.27;100.00;65176.34;5075111;28;19917;-58
2023/07/08 03:03:32;;;;;;;;;;;;;;;-147.27;100.00;65176.34;5074669;28;19917;-58
2023/07/08 03:06:00;;;;;;;;;;;;;;;-147.27;100.00;65176.34;5074354;28;19921;-57
2023/07/08 03:08:26;;;;;;;;;;;;;;;-147.27;100.00;65176.34;5074944;28;19916;-56
2023/07/08 03:10:57;;;;;;;;;;;;;;;-147.27;100.00;65176.34;5090902;28;19980;-54
2023/07/08 03:13:23;;;;;;;;;;;;;;;-147.27;100.00;65176.34;5074836;28;19921;-57
2023/07/08 03:15:49;;;;;;;;;;;;;;;-147.27;100.00;65176.34;5074029;28;19923;-57
2023/07/08 03:18:14;;;;;;;;;;;;;;;-147.27;100.00;65176.34;5057071;28;19921;-58
2023/07/08 03:20:40;;;;;;;;;;;;;;;-147.27;100.00;65176.34;5074643;28;19940;-55
2023/07/08 03:23:06;;;;;;;;;;;;;;;-147.27;100.00;65176.34;5074872;28;19948;-57
2023/07/08 03:25:32;;;;;;;;;;;;;;;-147.27;100.00;65176.34;5101938;28;19924;-54
2023/07/08 03:27:59;;;;;;;;;;;;;;;-147.27;100.00;65176.34;5057727;28;19952;-58
2023/07/08 03:30:26;;;;;;;;;;;;;;;-147.27;100.00;65176.34;5057043;28;19932;-56
2023/07/08 03:32:51;;;;;;;;;;;;;;;-147.27;100.00;65176.34;5073836;28;19999;-57
2023/07/08 03:35:17;;;;;;;;;;;;;;;-147.27;100.00;65176.34;5066287;28;19928;-58
2023/07/08 03:37:43;;;;;;;;;;;;;;;-147.27;100.00;65176.34;5064218;28;20319;-57
2023/07/08 03:40:09;;;;;;;;;;;;;;;-147.27;100.00;65176.34;5060720;28;19948;-56
2023/07/08 03:42:35;;;;;;;;;;;;;;;-147.27;100.00;65176.34;5074788;28;19923;-56
2023/07/08 03:45:01;;;;;;;;;;;;;;;-147.27;100.00;65176.34;5064318;28;19917;-57
2023/07/08 03:47:26;;;;;;;;;;;;;;;-147.27;100.00;65176.34;5056064;28;19925;-53
2023/07/08 03:49:52;;;;;;;;;;;;;;;-147.27;100.00;65176.34;5092434;28;19962;-53
2023/07/08 03:52:18;;;;;;;;;;;;;;;-147.27;100.00;65176.34;5073632;28;19921;-52
2023/07/08 03:54:44;;;;;;;;;;;;;;;-147.27;100.00;65176.34;5057501;28;19913;-53
2023/07/08 03:57:09;;;;;;;;;;;;;;;-147.27;100.00;65176.34;5073381;28;19924;-55
2023/07/08 03:59:35;;;;;;;;;;;;;;;-147.27;100.00;65176.34;5074352;28;19979;-54
2023/07/08 04:02:02;;;;;;;;;;;;;;;-147.27;100.00;65176.34;5056339;28;19924;-55
2023/07/08 04:04:28;;;;;;;;;;;;;;;-147.27;100.00;65176.34;5057813;28;20407;-54
2023/07/08 04:06:54;;;;;;;;;;;;;;;-147.27;100.00;65176.34;5084893;28;19923;-56
2023/07/08 04:09:20;;;;;;;;;;;;;;;-147.27;100.00;65176.34;5058445;28;19944;-54
2023/07/08 04:11:46;;;;;;;;;;;;;;;-147.27;100.00;65176.34;5074136;28;19932;-57
2023/07/08 04:14:11;;;;;;;;;;;;;;;-147.27;100.00;65176.34;5073816;28;19917;-54
2023/07/08 04:16:45;;;;;;;;;;;;;;;-147.27;100.00;65176.34;5084440;28;19941;-54
2023/07/08 04:19:14;;;;;;;;;;;;;;;-147.27;100.00;65176.34;5078020;28;19921;-57
2023/07/08 04:21:40;;;;;;;;;;;;;;;-147.27;100.00;65176.34;5078166;28;20008;-56
2023/07/08 04:24:05;;;;;;;;;;;;;;;-147.27;100.00;65176.34;5077992;28;19917;-53
2023/07/08 04:26:35;;;;;;;;;;;;;;;-147.27;100.00;65176.34;5083266;28;19916;-53
2023/07/08 04:29:01;;;;;;;;;;;;;;;-147.27;100.00;65176.34;5086382;28;19919;-58
2023/07/08 04:31:26;;;;;;;;;;;;;;;-147.27;100.00;65176.34;5077729;28;19952;-53
2023/07/08 04:33:52;;;;;;;;;;;;;;;-147.27;100.00;65176.34;5077456;28;19919;-56
2023/07/08 04:36:17;;;;;;;;;;;;;;;-147.27;100.00;65176.34;5059836;28;19928;-55
2023/07/08 04:38:46;;;;;;;;;;;;;;;-147.27;100.00;65176.34;5093357;28;19967;-52
2023/07/08 04:41:12;;;;;;;;;;;;;;;-147.27;100.00;65176.34;5077701;28;19921;-57
2023/07/08 04:43:38;;;;;;;;;;;;;;;-147.27;100.00;65176.34;5077637;28;19921;-55
2023/07/08 04:46:10;;;;;;;;;;;;;;;-147.27;100.00;65176.34;5088660;28;19927;-54
2023/07/08 04:48:35;;;;;;;;;;;;;;;-147.27;100.00;65176.34;5078661;28;19917;-54
2023/07/08 04:51:01;;;;;;;;;;;;;;;-147.27;100.00;65176.34;5077567;28;19923;-58
2023/07/08 04:53:26;;;;;;;;;;;;;;;-147.27;100.00;65176.34;5077406;28;19956;-51
2023/07/08 04:55:55;;;;;;;;;;;;;;;-147.27;100.00;65176.34;5077408;28;19923;-58
2023/07/08 04:58:21;;;;;;;;;;;;;;;-147.27;100.00;65176.34;5077560;28;19978;-55
2023/07/08 05:00:46;;;;;;;;;;;;;;;-147.27;100.00;65176.34;5077411;28;19948;-51
2023/07/08 05:03:12;;;;;;;;;;;;;;;-147.27;100.00;65176.34;5077004;28;19924;-56
2023/07/08 05:05:38;;;;;;;;;;;;;;;-147.27;100.00;65176.34;5077322;28;19980;-55
2023/07/08 05:08:03;;;;;;;;;;;;;;;-147.27;100.00;65176.34;5079369;28;19921;-58
2023/07/08 05:10:28;;;;;;;;;;;;;;;-147.27;100.00;65176.34;5085065;28;19924;-58
2023/07/08 05:12:54;;;;;;;;;;;;;;;-147.27;100.00;65176.34;5076414;28;19917;-59
2023/07/08 05:15:20;;;;;;;;;;;;;;;-147.27;100.00;65176.34;5076970;28;19947;-57
2023/07/08 05:17:45;;;;;;;;;;;;;;;-147.27;100.00;65176.34;5076839;28;19924;-56
2023/07/08 05:20:13;;;;;;;;;;;;;;;-147.27;100.00;65176.34;5076844;28;19917;-54
2023/07/08 05:22:39;;;;;;;;;;;;;;;-147.27;100.00;65176.34;5076873;28;19916;-58
2023/07/08 05:25:05;;;;;;;;;;;;;;;-147.27;100.00;65176.34;5077016;28;19917;-57
2023/07/08 05:27:33;;;;;;;;;;;;;;;-147.27;100.00;65176.34;5058555;28;19916;-55
2023/07/08 05:30:00;;;;;;;;;;;;;;;-147.27;100.00;65176.34;5076731;28;20004;-55
2023/07/08 05:32:26;;;;;;;;;;;;;;;-147.27;100.00;65176.34;5077592;28;19917;-58
2023/07/08 05:34:52;;;;;;;;;;;;;;;-147.27;100.00;65176.34;5076750;28;19923;-58
2023/07/08 05:37:21;;;;;;;;;;;;;;;-147.27;100.00;65176.34;5086918;28;19944;-59
2023/07/08 05:39:46;;;;;;;;;;;;;;;-147.27;100.00;65176.34;5076953;28;19924;-57
2023/07/08 05:42:12;;;;;;;;;;;;;;;-147.27;100.00;65176.34;5076188;28;19916;-59
2023/07/08 05:44:37;;;;;;;;;;;;;;;-147.27;100.00;65176.34;5076648;28;19923;-58
2023/07/08 05:47:03;;;;;;;;;;;;;;;-147.27;100.00;65176.34;5076478;28;19920;-58
2023/07/08 05:49:28;;;;;;;;;;;;;;;-147.27;100.00;65176.34;5086339;28;19912;-58
2023/07/08 05:51:54;;;;;;;;;;;;;;;-147.27;100.00;65176.34;5076634;28;19917;-59
2023/07/08 05:54:19;;;;;;;;;;;;;;;-147.27;100.00;65176.34;5076199;28;19917;-58
2023/07/08 05:56:45;;;;;;;;;;;;;;;-147.27;100.00;65176.34;5076355;28;19916;-58
2023/07/08 05:59:11;;;;;;;;;;;;;;;-147.27;100.00;65176.34;5075993;28;19928;-57
2023/07/08 06:01:37;;;;;;;;;;;;;;;-147.27;100.00;65176.34;5076329;28;19916;-59
2023/07/08 06:04:03;;;;;;;;;;;;;;;-147.27;100.00;65176.34;5081877;28;19943;-58
2023/07/08 06:06:29;;;;;;;;;;;;;;;-147.27;100.00;65176.34;5074938;28;19916;-57
2023/07/08 06:08:54;;;;;;;;;;;;;;;-147.27;100.00;65176.34;5080324;28;19956;-59
2023/07/08 06:11:21;;;;;;;;;;;;;;;-147.27;100.00;65176.34;5076535;28;19981;-58
2023/07/08 06:13:47;;;;;;;;;;;;;;;-147.27;100.00;65176.34;5078243;28;19984;-57
2023/07/08 06:16:13;;;;;;;;;;;;;;;-147.27;100.00;65176.34;5080128;28;19943;-58
2023/07/08 06:18:38;;;;;;;;;;;;;;;-147.27;100.00;65176.34;5083711;28;19931;-58
2023/07/08 06:21:04;;;;;;;;;;;;;;;-147.27;100.00;65176.34;5075866;28;19945;-56
2023/07/08 06:23:30;;;;;;;;;;;;;;;-147.27;100.00;65176.34;5087683;28;19923;-58
2023/07/08 06:25:56;;;;;;;;;;;;;;;-147.27;100.00;65176.34;5075997;28;19928;-58
2023/07/08 06:28:22;;;;;;;;;;;;;;;-147.27;100.00;65176.34;5075393;28;19942;-54
2023/07/08 06:30:48;;;;;;;;;;;;;;;-147.27;100.00;65176.34;5087536;28;19921;-56
2023/07/08 06:33:13;;;;;;;;;;;;;;;-147.27;100.00;65176.34;5084303;28;19916;-54
2023/07/08 06:35:40;;;;;;;;;;;;;;;-147.27;100.00;65176.34;5076018;28;19917;-55
2023/07/08 06:38:05;;;;;;;;;;;;;;;-147.27;100.00;65176.34;5080853;28;19921;-56
2023/07/08 06:40:32;;;;;;;;;;;;;;;-147.27;100.00;65176.34;5082983;28;19939;-55
2023/07/08 06:42:58;;;;;;;;;;;;;;;-147.27;100.00;65176.34;5075572;28;19957;-51
2023/07/08 06:45:31;;;;;;;;;;;;;;;-147.27;100.00;65176.34;5058008;28;19916;-56
2023/07/08 06:47:57;;;;;;;;;;;;;;;-147.27;100.00;65176.34;5077784;28;19963;-57
2023/07/08 06:50:22;;;;;;;;;;;;;;;-147.27;100.00;65176.34;5081290;28;19988;-55
2023/07/08 06:52:47;;;;;;;;;;;;;;;-147.27;100.00;65176.34;5075380;28;19963;-55
2023/07/08 06:55:13;;;;;;;;;;;;;;;-147.27;100.00;65176.34;5075187;28;19925;-55
2023/07/08 06:57:40;;;;;;;;;;;;;;;-147.27;100.00;65176.34;5088031;28;20027;-56
2023/07/08 07:00:07;;;;;;;;;;;;;;;-147.27;100.00;65176.34;5078254;28;19917;-54
2023/07/08 07:02:34;;;;;;;;;;;;;;;-147.27;100.00;65176.34;5075362;28;19921;-55
2023/07/08 07:05:00;;;;;;;;;;;;;;;-147.27;100.00;65176.34;5075128;28;19931;-58
2023/07/08 07:07:27;;;;;;;;;;;;;;;-147.27;100.00;65176.34;5074859;28;19955;-55
2023/07/08 07:09:53;;;;;;;;;;;;;;;-147.27;100.00;65176.34;5074857;28;19939;-59
2023/07/08 07:12:18;;;;;;;;;;;;;;;-147.27;100.00;65176.34;5074974;28;19940;-57
2023/07/08 07:14:44;;;;;;;;;;;;;;;-147.27;100.00;65176.34;5074940;28;19917;-58
2023/07/08 07:17:10;;;;;;;;;;;;;;;-147.27;100.00;65176.34;5074777;28;19963;-56
2023/07/08 07:19:35;;;;;;;;;;;;;;;-147.27;100.00;65176.34;5074947;28;19921;-54
2023/07/08 07:22:01;;;;;;;;;;;;;;;-147.27;100.00;65176.34;5074863;28;19916;-58
2023/07/08 07:24:26;;;;;;;;;;;;;;;-147.27;100.00;65176.34;5074640;28;20234;-56
2023/07/08 07:26:52;;;;;;;;;;;;;;;-147.27;100.00;65176.34;5060861;28;19927;-54
2023/07/08 07:29:18;;;;;;;;;;;;;;;-147.27;100.00;65176.34;5074696;28;19916;-57
2023/07/08 07:31:44;;;;;;;;;;;;;;;-147.27;100.00;65176.34;5074569;28;19921;-56
2023/07/08 07:34:10;;;;;;;;;;;;;;;-147.27;100.00;65176.34;5074487;28;19923;-56
2023/07/08 07:36:36;;;;;;;;;;;;;;;-147.27;100.00;65176.34;5074715;28;19988;-59
2023/07/08 07:39:02;;;;;;;;;;;;;;;-147.27;100.00;65176.34;5074508;28;19921;-57
2023/07/08 07:41:27;;;;;;;;;;;;;;;-147.27;100.00;65176.34;5083612;28;19920;-58
2023/07/08 07:43:52;;;;;;;;;;;;;;;-147.27;100.00;65176.34;5074606;28;19921;-57
2023/07/08 07:46:17;;;;;;;;;;;;;;;-147.27;100.00;65176.34;5074459;28;19936;-56
2023/07/08 07:48:43;;;;;;;;;;;;;;;-147.27;100.00;65176.34;5084901;28;19943;-56
2023/07/08 07:51:10;;;;;;;;;;;;;;;-147.27;100.00;65176.34;5075604;28;19975;-58
2023/07/08 07:53:37;;;;;;;;;;;;;;;-147.27;100.00;65176.34;5078760;28;19952;-59
2023/07/08 07:56:03;;;;;;;;;;;;;;;-147.27;100.00;65176.34;5078782;28;19952;-57
2023/07/08 07:58:28;;;;;;;;;;;;;;;-147.27;100.00;65176.34;5085514;28;19916;-59
2023/07/08 08:00:54;;;;;;;;;;;;;;;-147.27;100.00;65176.34;5078499;28;19923;-58
2023/07/08 08:03:20;;;;;;;;;;;;;;;-147.27;100.00;65176.34;5060609;28;19916;-58
2023/07/08 08:05:46;;;;;;;;;;;;;;;-147.27;100.00;65176.34;5076859;28;19920;-59
2023/07/08 08:08:12;;;;;;;;;;;;;;;-147.27;100.00;65176.34;5081621;28;19917;-58
2023/07/08 08:10:38;;;;;;;;;;;;;;;-147.27;100.00;65176.34;5078319;28;19916;-61
2023/07/08 08:13:03;;;;;;;;;;;;;;;-147.27;100.00;65176.34;5078375;28;19988;-59
2023/07/08 08:15:29;;;;;;;;;;;;;;;-147.27;100.00;65176.34;5078034;28;19913;-59
2023/07/08 08:17:54;;;;;;;;;;;;;;;-147.27;100.00;65176.34;5078001;28;19928;-58
2023/07/08 08:20:24;;;;;;;;;;;;;;;-147.27;100.00;65176.34;5060485;28;19917;-59
2023/07/08 08:22:50;;;;;;;;;;;;;;;-147.27;100.00;65176.34;5093184;28;19943;-55
2023/07/08 08:25:16;;;;;;;;;;;;;;;-147.27;100.00;65176.34;5077827;28;19917;-58
2023/07/08 08:27:43;;;;;;;;;;;;;;;-147.27;100.00;65176.34;5078148;28;19917;-58
2023/07/08 08:30:09;;;;;;;;;;;;;;;-147.27;100.00;65176.34;5077582;28;19939;-59
2023/07/08 08:32:35;;;;;;;;;;;;;;;-147.27;100.00;65176.34;5077984;28;19917;-59
2023/07/08 08:35:01;;;;;;;;;;;;;;;-147.27;100.00;65176.34;5077697;28;19924;-58
2023/07/08 08:37:26;;;;;;;;;;;;;;;-147.27;100.00;65176.34;5077619;28;19972;-59
2023/07/08 08:39:51;;;;;;;;;;;;;;;-147.27;100.00;65176.34;5077549;28;19956;-60
2023/07/08 08:42:37;;;;;;;;;;;;;;;-147.27;100.00;65176.34;5077356;28;19916;-57
2023/07/08 08:45:03;;;;;;;;;;;;;;;-147.27;100.00;65176.34;5076871;28;19929;-59
2023/07/08 08:47:39;;;;;;;;;;;;;;;-147.27;100.00;65176.34;5077529;28;19916;-58
2023/07/08 08:50:20;;;;;;;;;;;;;;;-147.27;100.00;65176.34;5077377;28;19927;-56
2023/07/08 08:52:46;;;;;;;;;;;;;;;-147.27;100.00;65176.34;5070825;28;19917;-57
2023/07/08 08:55:13;;;;;;;;;;;;;;;-147.27;100.00;65176.34;5084980;28;19939;-59
2023/07/08 08:57:53;;;;;;;;;;;;;;;-147.27;100.00;65176.34;5081048;28;19924;-58
2023/07/08 09:00:23;;;;;;;;;;;;;;;-147.27;100.00;65176.34;5068621;28;19917;-60
2023/07/08 09:02:52;;;;;;;;;;;;;;;-147.27;100.00;65176.34;5083101;28;19921;-57
2023/07/08 09:05:18;;;;;;;;;;;;;;;-147.27;100.00;65176.34;5068621;28;19916;-59
2023/07/08 09:08:04;;;;;;;;;;;;;;;-147.27;100.00;65176.34;5077027;28;19936;-60
2023/07/08 09:10:39;;;;;;;;;;;;;;;-147.27;100.00;65176.34;5070893;28;19916;-59
2023/07/08 09:13:06;;;;;;;;;;;;;;;-147.27;100.00;65176.34;5076409;28;19923;-58
2023/07/08 09:15:32;;;;;;;;;;;;;;;-147.27;100.00;65176.34;5076945;28;19917;-59
2023/07/08 09:18:03;;;;;;;;;;;;;;;-147.27;100.00;65176.34;5077411;28;19932;-58
2023/07/08 09:20:28;;;;;;;;;;;;;;;-147.27;100.00;65176.34;5076626;28;19925;-57
2023/07/08 09:23:10;;;;;;;;;;;;;;;-147.27;100.00;65176.34;5076786;28;19951;-60
2023/07/08 09:25:39;;;;;;;;;;;;;;;-147.27;100.00;65176.34;5068399;28;19983;-59
2023/07/08 09:28:05;;;;;;;;;;;;;;;-147.27;100.00;65176.34;5076756;28;19917;-60
2023/07/08 09:30:30;;;;;;;;;;;;;;;-147.27;100.00;65176.34;5067708;28;19984;-59
2023/07/08 09:32:56;;;;;;;;;;;;;;;-147.27;100.00;65176.34;5067246;28;19917;-59
2023/07/08 09:35:27;;;;;;;;;;;;;;;-147.27;100.00;65176.34;5076318;28;19948;-60
2023/07/08 09:37:53;;;;;;;;;;;;;;;-147.27;100.00;65176.34;5076226;28;19936;-59
2023/07/08 09:40:32;;;;;;;;;;;;;;;-147.27;100.00;65176.34;5061636;28;19991;-60
2023/07/08 09:43:01;;;;;;;;;;;;;;;-147.27;100.00;65176.34;5075427;28;19917;-59
2023/07/08 09:45:27;;;;;;;;;;;;;;;-147.27;100.00;65176.34;5076127;28;19981;-60
2023/07/08 09:47:54;;;;;;;;;;;;;;;-147.27;100.00;65176.34;5076420;28;19921;-61
2023/07/08 09:50:20;;;;;;;;;;;;;;;-147.27;100.00;65176.34;5076362;28;19972;-59
2023/07/08 09:52:46;;;;;;;;;;;;;;;-147.27;100.00;65176.34;5076032;28;19928;-59
2023/07/08 09:55:12;;;;;;;;;;;;;;;-147.27;100.00;65176.34;5076062;28;19917;-60
2023/07/08 09:57:38;;;;;;;;;;;;;;;-147.27;100.00;65176.34;5075477;28;19940;-62
2023/07/08 10:00:11;;;;;;;;;;;;;;;-147.27;100.00;65176.34;5085936;28;19917;-60
2023/07/08 10:02:42;;;;;;;;;;;;;;;-147.27;100.00;65176.34;5076270;28;19959;-61
2023/07/08 10:05:14;;;;;;;;;;;;;;;-147.27;100.00;65176.34;5075985;28;19917;-58
2023/07/08 10:07:39;;;;;;;;;;;;;;;-147.27;100.00;65176.34;5064389;28;19920;-60
2023/07/08 10:10:08;;;;;;;;;;;;;;;-147.27;100.00;65176.34;5083640;28;19931;-60
2023/07/08 10:12:34;;;;;;;;;;;;;;;-147.27;100.00;65176.34;5074936;28;19916;-61
2023/07/08 10:15:06;;;;;;;;;;;;;;;-147.27;100.00;65176.34;5068396;28;19924;-60
2023/07/08 10:17:32;;;;;;;;;;;;;;;-147.27;100.00;65176.34;5072331;28;19917;-61
2023/07/08 10:19:59;;;;;;;;;;;;;;;-147.27;100.00;65176.34;5079553;28;19940;-60
2023/07/08 10:22:38;;;;;;;;;;;;;;;-147.27;100.00;65176.34;5074935;28;19920;-60
2023/07/08 10:25:11;;;;;;;;;;;;;;;-147.27;100.00;65176.34;5067960;28;19932;-60
2023/07/08 10:27:50;;;;;;;;;;;;;;;-147.27;100.00;65176.34;5075561;28;19936;-60
2023/07/08 10:30:24;;;;;;;;;;;;;;;-147.27;100.00;65176.34;5075209;28;19980;-60
2023/07/08 10:32:59;;;;;;;;;;;;;;;-147.27;100.00;65176.34;5079381;28;19956;-61
2023/07/08 10:35:27;;;;;;;;;;;;;;;-147.27;100.00;65176.34;5074780;28;19916;-62
2023/07/08 10:38:11;;;;;;;;;;;;;;;-147.27;100.00;65176.34;5074796;28;19931;-59
2023/07/08 10:40:49;;;;;;;;;;;;;;;-147.27;100.00;65176.34;5072568;28;19917;-60
2023/07/08 10:43:30;;;;;;;;;;;;;;;-147.27;100.00;65176.34;5071502;28;19917;-60
2023/07/08 10:45:55;;;;;;;;;;;;;;;-147.27;100.00;65176.34;5075190;28;19940;-60
2023/07/08 10:48:34;;;;;;;;;;;;;;;-147.27;100.00;65176.34;5074843;28;19985;-61
2023/07/08 10:51:10;;;;;;;;;;;;;;;-147.27;100.00;65176.34;5067740;28;19913;-60
2023/07/08 10:53:41;;;;;;;;;;;;;;;-147.27;100.00;65176.34;5084035;28;19916;-60
2023/07/08 10:56:14;;;;;;;;;;;;;;;-147.27;100.00;65176.34;5075227;28;19923;-60
2023/07/08 10:58:39;;;;;;;;;;;;;;;-147.27;100.00;65176.34;5075134;28;19921;-60
2023/07/08 11:01:13;;;;;;;;;;;;;;;-147.27;100.00;65176.34;5075462;28;19920;-60
2023/07/08 11:04:08;;;;;;;;;;;;;;;-147.27;100.00;65176.34;5074161;28;20003;-61
2023/07/08 11:06:51;;;;;;;;;;;;;;;-147.27;100.00;65176.34;5061901;28;19920;-61
2023/07/08 11:09:33;;;;;;;;;;;;;;;-147.27;100.00;65176.34;5073851;28;19988;-60
2023/07/08 11:12:15;;;;;;;;;;;;;;;-147.27;100.00;65176.34;5077626;28;19924;-61
2023/07/08 11:14:51;;;;;;;;;;;;;;;-147.27;100.00;65176.34;5061740;28;19921;-61
2023/07/08 11:17:43;;;;;;;;;;;;;;;-147.27;100.00;65176.34;5074739;28;19917;-62
2023/07/08 11:20:11;;;;;;;;;;;;;;;-147.27;100.00;65176.34;5051040;28;19916;-60
2023/07/08 11:22:43;;;;;;;;;;;;;;;-147.27;100.00;65176.34;5073926;28;19972;-60
2023/07/08 11:25:16;;;;;;;;;;;;;;;-147.27;100.00;65176.34;5074319;28;19917;-61
2023/07/08 11:27:42;;;;;;;;;;;;;;;-147.27;100.00;65176.34;5074389;28;19921;-62
2023/07/08 11:30:14;;;;;;;;;;;;;;;-147.27;100.00;65176.34;5074717;28;19913;-60
2023/07/08 11:32:42;;;;;;;;;;;;;;;-147.27;100.00;65176.34;5081600;28;19942;-61
2023/07/08 11:35:19;;;;;;;;;;;;;;;-147.27;100.00;65176.34;5073449;28;19923;-61
2023/07/08 11:37:45;;;;;;;;;;;;;;;-147.27;100.00;65176.34;5074484;28;20031;-60
2023/07/08 11:40:21;;;;;;;;;;;;;;;-147.27;100.00;65176.34;5082950;28;19945;-61
2023/07/08 11:42:48;;;;;;;;;;;;;;;-147.27;100.00;65176.34;5076751;28;19940;-62
2023/07/08 11:45:24;;;;;;;;;;;;;;;-147.27;100.00;65176.34;5074380;28;19924;-62
2023/07/08 11:47:50;;;;;;;;;;;;;;;-147.27;100.00;65176.34;5074611;28;19996;-60
2023/07/08 11:50:24;;;;;;;;;;;;;;;-147.27;100.00;65176.34;5076179;28;19912;-61
2023/07/08 11:52:54;;;;;;;;;;;;;;;-147.27;100.00;65176.34;5078430;28;19923;-61
2023/07/08 11:55:37;;;;;;;;;;;;;;;-147.27;100.00;65176.34;5074161;28;19952;-61
2023/07/08 11:58:06;;;;;;;;;;;;;;;-147.27;100.00;65176.34;5072513;28;19988;-62
2023/07/08 12:00:33;;;;;;;;;;;;;;;-147.27;100.00;65176.34;5083543;28;19924;-61
2023/07/08 12:03:03;;;;;;;;;;;;;;;-147.27;100.00;65176.34;5074871;28;19920;-61
2023/07/08 12:05:36;;;;;;;;;;;;;;;-147.27;100.00;65176.34;5073789;28;19976;-60
2023/07/08 12:08:03;;;;;;;;;;;;;;;-147.27;100.00;65176.34;5073834;28;20031;-62
2023/07/08 12:10:38;;;;;;;;;;;;;;;-147.27;100.00;65176.34;5073886;28;20095;-60
2023/07/08 12:13:10;;;;;;;;;;;;;;;-147.27;100.00;65176.34;5073637;28;19920;-61
2023/07/08 12:15:36;;;;;;;;;;;;;;;-147.27;100.00;65176.34;5074200;28;19939;-61
2023/07/08 12:18:06;;;;;;;;;;;;;;;-147.27;100.00;65176.34;5073616;28;19984;-61
2023/07/08 12:20:33;;;;;;;;;;;;;;;-147.27;100.00;65176.34;5079167;28;19946;-61
2023/07/08 12:23:00;;;;;;;;;;;;;;;-147.27;100.00;65176.34;5073760;28;19992;-61